createdAt,value
2022-11-20T00:01:18.281Z,4.57
2022-11-20T00:03:45.395Z,4.70
2022-11-20T00:06:17.370Z,4.82
2022-11-20T00:08:44.803Z,4.38
2022-11-20T00:11:16.413Z,3.83
2022-11-20T00:13:48.119Z,4.50
2022-11-20T00:16:17.085Z,5.07
2022-11-20T00:18:46.719Z,4.75
2022-11-20T00:21:18.269Z,4.65
2022-11-20T00:23:45.255Z,5.05
2022-11-20T00:26:14.912Z,4.97
2022-11-20T00:28:42.400Z,4.45
2022-11-20T00:31:15.172Z,4.72
2022-11-20T00:33:43.484Z,4.50
2022-11-20T00:36:12.804Z,4.20
2022-11-20T00:38:39.634Z,4.78
2022-11-20T00:41:09.413Z,4.60
2022-11-20T00:43:36.682Z,4.40
2022-11-20T00:46:09.613Z,4.65
2022-11-20T00:48:36.706Z,3.92
2022-11-20T00:51:03.444Z,4.18
2022-11-20T00:53:30.092Z,4.47
2022-11-20T00:56:01.773Z,4.20
2022-11-20T00:58:34.186Z,4.15
2022-11-20T01:01:13.987Z,4.10
2022-11-20T01:03:46.112Z,3.50
2022-11-20T01:06:12.671Z,4.10
2022-11-20T01:08:39.790Z,4.40
2022-11-20T01:11:09.706Z,3.97
2022-11-20T01:13:40.204Z,4.20
2022-11-20T01:16:09.900Z,4.07
2022-11-20T01:18:37.312Z,4.20
2022-11-20T01:21:07.576Z,4.20
2022-11-20T01:23:36.889Z,3.70
2022-11-20T01:26:09.851Z,4.07
2022-11-20T01:28:36.763Z,4.15
2022-11-20T01:31:16.056Z,4.50
2022-11-20T01:33:43.939Z,3.92
2022-11-20T01:36:11.479Z,4.18
2022-11-20T01:38:38.161Z,4.00
2022-11-20T01:41:05.724Z,4.00
2022-11-20T01:43:32.748Z,4.43
2022-11-20T01:46:19.535Z,3.95
2022-11-20T01:48:51.903Z,4.10
2022-11-20T01:51:34.125Z,4.13
2022-11-20T01:54:06.195Z,3.47
2022-11-20T01:56:38.098Z,3.90
2022-11-20T01:59:07.718Z,4.28
2022-11-20T02:01:34.992Z,3.55
2022-11-20T02:04:03.569Z,4.30
2022-11-20T02:06:45.363Z,3.92
2022-11-20T02:09:12.708Z,4.20
2022-11-20T02:11:39.355Z,4.47
2022-11-20T02:14:06.024Z,3.90
2022-11-20T02:16:37.757Z,4.30
2022-11-20T02:19:08.455Z,4.32
2022-11-20T02:21:50.098Z,4.20
2022-11-20T02:24:19.548Z,4.40
2022-11-20T02:26:55.715Z,4.32
2022-11-20T02:29:45.583Z,4.70
2022-11-20T02:32:34.229Z,5.07
2022-11-20T02:35:18.950Z,4.22
2022-11-20T02:37:48.144Z,3.92
2022-11-20T02:40:15.018Z,3.92
2022-11-20T02:42:41.660Z,4.57
2022-11-20T02:45:08.940Z,4.38
2022-11-20T02:47:35.567Z,4.10
2022-11-20T02:50:02.358Z,4.30
2022-11-20T02:52:28.978Z,4.28
2022-11-20T02:54:55.753Z,4.03
2022-11-20T02:57:22.379Z,4.20
2022-11-20T02:59:49.288Z,4.30
2022-11-20T03:02:15.904Z,4.38
2022-11-20T03:04:42.526Z,4.13
2022-11-20T03:07:09.675Z,4.25
2022-11-20T03:09:36.758Z,4.38
2022-11-20T03:12:03.561Z,4.22
2022-11-20T03:14:30.139Z,4.00
2022-11-20T03:16:57.385Z,4.18
2022-11-20T03:19:24.501Z,4.20
2022-11-20T03:21:51.076Z,3.75
2022-11-20T03:24:18.145Z,4.18
2022-11-20T03:26:44.737Z,4.10
2022-11-20T03:29:11.469Z,4.10
2022-11-20T03:31:43.391Z,3.80
2022-11-20T03:34:11.824Z,4.18
2022-11-20T03:36:40.312Z,3.60
2022-11-20T03:39:07.480Z,3.53
2022-11-20T03:41:38.615Z,3.80
2022-11-20T03:44:07.348Z,3.70
2022-11-20T03:46:34.018Z,3.53
2022-11-20T03:49:02.127Z,4.07
2022-11-20T03:51:34.342Z,3.90
2022-11-20T03:54:03.894Z,3.97
2022-11-20T03:56:33.490Z,3.80
2022-11-20T03:59:00.363Z,3.67
2022-11-20T04:01:34.933Z,3.30
2022-11-20T04:04:02.071Z,3.30
2022-11-20T04:06:35.852Z,3.85
2022-11-20T04:09:02.525Z,3.80
2022-11-20T04:11:31.687Z,3.15
2022-11-20T04:14:04.104Z,3.60
2022-11-20T04:16:32.642Z,3.58
2022-11-20T04:19:01.432Z,3.85
2022-11-20T04:21:28.689Z,4.20
2022-11-20T04:23:57.222Z,4.18
2022-11-20T04:26:26.007Z,3.70
2022-11-20T04:28:52.985Z,3.90
2022-11-20T04:31:27.803Z,4.07
2022-11-20T04:33:54.550Z,4.00
2022-11-20T04:36:25.099Z,4.03
2022-11-20T04:38:59.118Z,3.58
2022-11-20T04:41:32.284Z,3.45
2022-11-20T04:44:03.967Z,4.00
2022-11-20T04:46:35.945Z,3.75
2022-11-20T04:49:02.715Z,4.05
2022-11-20T04:51:29.719Z,3.58
2022-11-20T04:53:56.404Z,3.95
2022-11-20T04:56:23.698Z,3.67
2022-11-20T04:58:51.978Z,3.90
2022-11-20T05:01:21.604Z,3.95
2022-11-20T05:03:48.385Z,4.13
2022-11-20T05:06:17.803Z,3.80
2022-11-20T05:08:44.821Z,3.80
2022-11-20T05:11:16.984Z,4.05
2022-11-20T05:13:43.626Z,4.20
2022-11-20T05:16:19.493Z,4.00
2022-11-20T05:18:46.865Z,3.35
2022-11-20T05:21:14.192Z,3.83
2022-11-20T05:23:41.598Z,4.25
2022-11-20T05:26:13.140Z,3.58
2022-11-20T05:28:41.559Z,3.63
2022-11-20T05:31:10.453Z,4.00
2022-11-20T05:33:37.960Z,3.67
2022-11-20T05:36:05.473Z,3.85
2022-11-20T05:38:32.432Z,4.07
2022-11-20T05:41:14.031Z,4.10
2022-11-20T05:43:43.035Z,3.40
2022-11-20T05:46:12.376Z,3.90
2022-11-20T05:48:40.489Z,4.00
2022-11-20T05:51:10.556Z,3.88
2022-11-20T05:53:37.828Z,3.80
2022-11-20T05:56:13.336Z,3.58
2022-11-20T05:58:40.729Z,3.42
2022-11-20T06:01:14.169Z,3.72
2022-11-20T06:03:43.354Z,3.55
2022-11-20T06:06:10.243Z,3.53
2022-11-20T06:08:36.843Z,3.45
2022-11-20T06:11:08.211Z,3.60
2022-11-20T06:13:39.151Z,3.42
2022-11-20T06:16:08.666Z,3.90
2022-11-20T06:18:35.319Z,3.42
2022-11-20T06:21:04.371Z,3.50
2022-11-20T06:23:32.961Z,3.88
2022-11-20T06:26:06.850Z,3.90
2022-11-20T06:28:33.711Z,4.05
2022-11-20T06:31:00.632Z,3.97
2022-11-20T06:33:27.507Z,3.72
2022-11-20T06:36:00.948Z,4.00
2022-11-20T06:38:29.806Z,4.20
2022-11-20T06:40:57.002Z,4.38
2022-11-20T06:43:24.411Z,4.38
2022-11-20T06:45:55.035Z,4.25
2022-11-20T06:48:21.875Z,4.65
2022-11-20T06:50:48.689Z,3.53
2022-11-20T06:53:15.384Z,3.65
2022-11-20T06:55:46.189Z,4.32
2022-11-20T06:58:13.620Z,4.55
2022-11-20T07:00:40.418Z,3.25
2022-11-20T07:03:09.428Z,4.28
2022-11-20T07:05:37.365Z,4.47
2022-11-20T07:08:04.575Z,4.82
2022-11-20T07:10:31.757Z,4.43
2022-11-20T07:12:58.423Z,4.95
2022-11-20T07:15:26.419Z,4.00
2022-11-20T07:17:53.324Z,4.10
2022-11-20T07:20:20.020Z,3.85
2022-11-20T07:22:46.623Z,4.28
2022-11-20T07:25:13.231Z,5.00
2022-11-20T07:27:39.841Z,5.10
2022-11-20T07:30:07.797Z,5.13
2022-11-20T07:32:34.421Z,5.10
2022-11-20T07:35:00.973Z,5.20
2022-11-20T07:37:27.609Z,5.38
2022-11-20T07:39:54.230Z,5.07
2022-11-20T07:42:21.350Z,4.97
2022-11-20T07:44:51.094Z,4.97
2022-11-20T07:47:17.698Z,4.78
2022-11-20T07:49:44.264Z,5.00
2022-11-20T07:52:10.875Z,4.93
2022-11-20T07:54:37.483Z,6.13
2022-11-20T07:57:04.112Z,5.57
2022-11-20T07:59:30.676Z,4.25
2022-11-20T08:01:57.311Z,5.47
2022-11-20T08:04:24.381Z,4.18
2022-11-20T08:06:53.388Z,4.97
2022-11-20T08:09:20.336Z,4.45
2022-11-20T08:12:05.546Z,4.90
2022-11-20T08:14:32.307Z,5.53
2022-11-20T08:16:58.922Z,5.18
2022-11-20T08:19:25.539Z,5.65
2022-11-20T08:21:52.128Z,5.22
2022-11-20T08:24:18.757Z,5.15
2022-11-20T08:26:45.328Z,4.85
2022-11-20T08:29:11.979Z,4.07
2022-11-20T08:31:38.706Z,5.32
2022-11-20T08:34:09.248Z,5.07
2022-11-20T08:36:36.503Z,4.95
2022-11-20T08:39:04.129Z,3.72
2022-11-20T08:41:34.038Z,5.10
2022-11-20T08:44:03.063Z,4.85
2022-11-20T08:46:36.291Z,5.00
2022-11-20T08:49:03.340Z,4.63
2022-11-20T08:51:30.218Z,5.18
2022-11-20T08:53:56.877Z,4.82
2022-11-20T08:56:23.496Z,5.25
2022-11-20T08:59:18.350Z,4.80
2022-11-20T09:01:39.953Z,4.15
2022-11-20T09:04:06.653Z,4.38
2022-11-20T09:06:33.317Z,6.20
2022-11-20T09:09:06.104Z,4.45
2022-11-20T09:11:33.412Z,6.25
2022-11-20T09:14:01.010Z,6.18
2022-11-20T09:16:27.639Z,5.43
2022-11-20T09:19:20.290Z,4.35
2022-11-20T09:21:43.700Z,5.35
2022-11-20T09:24:10.500Z,4.63
2022-11-20T09:26:37.128Z,5.32
2022-11-20T09:29:04.027Z,5.30
2022-11-20T09:31:30.658Z,4.72
2022-11-20T09:33:57.336Z,5.43
2022-11-20T09:36:23.959Z,5.40
2022-11-20T09:38:50.587Z,5.28
2022-11-20T09:41:17.127Z,5.78
2022-11-20T09:44:01.988Z,4.93
2022-11-20T09:47:10.817Z,5.88
2022-11-20T09:49:52.661Z,5.47
2022-11-20T09:52:40.913Z,5.18
2022-11-20T09:55:12.181Z,11.52
2022-11-20T09:57:43.789Z,7.60
2022-11-20T10:00:14.858Z,6.85
2022-11-20T10:02:56.799Z,5.55
2022-11-20T10:05:28.182Z,5.10
2022-11-20T10:08:01.073Z,4.82
2022-11-20T10:10:44.247Z,4.55
2022-11-20T10:13:29.303Z,4.45
2022-11-20T10:16:38.024Z,4.72
2022-11-20T10:19:49.353Z,4.63
2022-11-20T10:22:28.967Z,4.38
2022-11-20T10:25:02.793Z,4.38
2022-11-20T10:27:40.957Z,4.18
2022-11-20T10:30:13.876Z,3.88
2022-11-20T10:32:43.961Z,4.30
2022-11-20T10:35:33.990Z,4.20
2022-11-20T10:38:04.152Z,3.15
2022-11-20T10:40:39.549Z,4.30
2022-11-20T10:43:14.578Z,4.10
2022-11-20T10:46:04.237Z,5.00
2022-11-20T10:48:32.835Z,4.75
2022-11-20T10:51:15.054Z,5.38
2022-11-20T10:54:05.500Z,5.28
2022-11-20T10:56:49.881Z,4.80
2022-11-20T10:59:31.932Z,4.55
2022-11-20T11:02:01.617Z,4.45
2022-11-20T11:04:45.353Z,4.30
2022-11-20T11:07:35.025Z,3.83
2022-11-20T11:10:13.453Z,4.10
2022-11-20T11:12:46.426Z,4.15
2022-11-20T11:15:38.903Z,3.92
2022-11-20T11:18:06.196Z,4.50
2022-11-20T11:20:33.476Z,4.30
2022-11-20T11:23:01.322Z,4.13
2022-11-20T11:25:36.872Z,4.30
2022-11-20T11:28:20.665Z,4.40
2022-11-20T11:30:50.175Z,4.38
2022-11-20T11:33:31.642Z,4.05
2022-11-20T11:36:02.310Z,3.72
2022-11-20T11:38:35.300Z,4.03
2022-11-20T11:41:04.399Z,4.30
2022-11-20T11:43:53.073Z,3.70
2022-11-20T11:46:26.364Z,3.67
2022-11-20T11:49:01.952Z,3.65
2022-11-20T11:51:48.189Z,3.57
2022-11-20T11:54:26.536Z,2.95
2022-11-20T11:56:54.635Z,3.10
2022-11-20T11:59:31.456Z,3.28
2022-11-20T12:02:12.291Z,3.15
2022-11-20T12:04:51.685Z,3.47
2022-11-20T12:07:50.069Z,3.50
2022-11-20T12:10:35.899Z,3.15
2022-11-20T12:13:10.621Z,3.25
2022-11-20T12:15:40.525Z,3.50
2022-11-20T12:18:23.873Z,3.60
2022-11-20T12:21:15.583Z,3.05
2022-11-20T12:23:50.666Z,3.28
2022-11-20T12:26:46.936Z,2.60
2022-11-20T12:29:41.712Z,2.70
2022-11-20T12:32:08.269Z,2.63
2022-11-20T12:35:05.068Z,2.53
2022-11-20T12:37:53.540Z,3.00
2022-11-20T12:40:37.928Z,2.97
2022-11-20T12:43:29.013Z,2.97
2022-11-20T12:46:01.283Z,2.70
2022-11-20T12:48:48.147Z,2.90
2022-11-20T12:51:26.710Z,3.20
2022-11-20T12:54:05.282Z,2.97
2022-11-20T12:57:03.955Z,2.70
2022-11-20T13:00:08.225Z,2.90
2022-11-20T13:03:02.306Z,3.03
2022-11-20T13:05:40.692Z,2.88
2022-11-20T13:08:19.626Z,2.88
2022-11-20T13:10:56.969Z,2.63
2022-11-20T13:13:29.783Z,3.00
2022-11-20T13:16:14.556Z,2.97
2022-11-20T13:18:43.605Z,2.72
2022-11-20T13:21:23.479Z,2.90
2022-11-20T13:23:50.215Z,3.22
2022-11-20T13:26:18.515Z,2.92
2022-11-20T13:28:47.000Z,3.25
2022-11-20T13:31:27.493Z,2.67
2022-11-20T13:33:56.438Z,2.85
2022-11-20T13:36:27.026Z,2.60
2022-11-20T13:38:55.761Z,3.08
2022-11-20T13:41:40.397Z,3.28
2022-11-20T13:44:14.545Z,3.63
2022-11-20T13:46:46.792Z,3.20
2022-11-20T13:49:33.592Z,3.75
2022-11-20T13:52:30.627Z,3.10
2022-11-20T13:55:38.965Z,3.50
2022-11-20T13:58:14.322Z,2.95
2022-11-20T14:01:22.570Z,3.00
2022-11-20T14:06:43.493Z,2.60
2022-11-20T14:09:31.991Z,2.92
2022-11-20T14:11:59.334Z,2.60
2022-11-20T14:14:28.849Z,3.20
2022-11-20T14:17:08.771Z,3.20
2022-11-20T14:19:38.133Z,3.35
2022-11-20T14:22:18.012Z,3.60
2022-11-20T14:24:44.629Z,3.30
2022-11-20T14:27:29.581Z,3.33
2022-11-20T14:29:56.320Z,3.22
2022-11-20T14:32:29.023Z,3.38
2022-11-20T14:34:57.441Z,3.05
2022-11-20T14:37:27.124Z,3.40
2022-11-20T14:39:56.473Z,3.58
2022-11-20T14:42:26.504Z,3.95
2022-11-20T14:44:57.562Z,4.00
2022-11-20T14:47:30.079Z,3.30
2022-11-20T14:49:58.836Z,3.40
2022-11-20T14:52:28.297Z,3.97
2022-11-20T14:54:57.089Z,3.08
2022-11-20T14:57:32.483Z,3.20
2022-11-20T15:00:25.824Z,4.30
2022-11-20T15:02:53.663Z,3.90
2022-11-20T15:05:23.060Z,3.83
2022-11-20T15:07:53.467Z,4.13
2022-11-20T15:10:24.461Z,4.28
2022-11-20T15:13:01.146Z,4.75
2022-11-20T15:15:40.393Z,5.47
2022-11-20T15:18:13.895Z,5.45
2022-11-20T15:20:42.028Z,4.68
2022-11-20T15:23:19.417Z,4.82
2022-11-20T15:25:46.866Z,3.67
2022-11-20T15:28:21.802Z,3.05
2022-11-20T15:30:49.998Z,3.75
2022-11-20T15:33:18.229Z,4.47
2022-11-20T15:35:45.597Z,4.53
2022-11-20T15:38:12.203Z,5.03
2022-11-20T15:40:38.841Z,6.20
2022-11-20T15:43:12.535Z,5.85
2022-11-20T15:45:43.685Z,6.40
2022-11-20T15:48:14.705Z,5.75
2022-11-20T15:51:06.466Z,3.92
2022-11-20T15:53:33.101Z,3.67
2022-11-20T15:55:59.798Z,4.03
2022-11-20T15:58:27.543Z,3.90
2022-11-20T16:00:55.157Z,4.50
2022-11-20T16:03:22.042Z,4.15
2022-11-20T16:05:48.715Z,4.25
2022-11-20T16:08:15.929Z,4.40
2022-11-20T16:10:42.721Z,4.47
2022-11-20T16:13:36.451Z,5.40
2022-11-20T16:16:07.860Z,4.75
2022-11-20T16:18:34.768Z,5.43
2022-11-20T16:21:02.068Z,6.80
2022-11-20T16:23:28.711Z,7.00
2022-11-20T16:25:55.385Z,7.65
2022-11-20T16:28:22.093Z,6.75
2022-11-20T16:30:48.680Z,6.82
2022-11-20T16:33:18.022Z,6.30
2022-11-20T16:35:44.834Z,6.47
2022-11-20T16:38:11.468Z,6.85
2022-11-20T16:40:38.074Z,5.88
2022-11-20T16:43:10.688Z,6.40
2022-11-20T16:45:45.226Z,6.65
2022-11-20T16:48:16.411Z,6.60
2022-11-20T16:50:52.147Z,6.47
2022-11-20T16:53:23.165Z,18.13
2022-11-20T16:55:49.842Z,12.07
2022-11-20T16:58:16.499Z,8.10
2022-11-20T17:00:48.385Z,8.55
2022-11-20T17:03:18.216Z,8.50
2022-11-20T17:05:45.535Z,8.05
2022-11-20T17:08:12.172Z,7.60
2022-11-20T17:10:38.749Z,7.95
2022-11-20T17:13:05.340Z,7.47
2022-11-20T17:15:31.899Z,7.68
2022-11-20T17:17:59.941Z,7.25
2022-11-20T17:20:26.641Z,7.45
2022-11-20T17:22:53.229Z,7.28
2022-11-20T17:25:19.838Z,7.53
2022-11-20T17:27:46.415Z,7.57
2022-11-20T17:30:13.118Z,7.43
2022-11-20T17:32:45.206Z,7.28
2022-11-20T17:35:12.025Z,8.20
2022-11-20T17:37:38.587Z,8.35
2022-11-20T17:40:05.646Z,8.40
2022-11-20T17:42:36.874Z,9.13
2022-11-20T17:45:04.670Z,8.45
2022-11-20T17:47:31.306Z,8.80
2022-11-20T17:49:57.983Z,8.57
2022-11-20T17:52:24.599Z,8.77
2022-11-20T17:54:55.732Z,9.05
2022-11-20T17:57:42.054Z,9.63
2022-11-20T18:00:10.968Z,9.23
2022-11-20T18:02:37.585Z,9.20
2022-11-20T18:05:04.485Z,9.45
2022-11-20T18:07:31.128Z,9.43
2022-11-20T18:09:57.767Z,9.18
2022-11-20T18:12:24.351Z,9.23
2022-11-20T18:14:50.997Z,9.02
2022-11-20T18:17:17.888Z,9.35
2022-11-20T18:20:07.092Z,9.40
2022-11-20T18:22:34.315Z,9.20
2022-11-20T18:25:00.976Z,9.88
2022-11-20T18:27:27.567Z,9.20
2022-11-20T18:29:54.103Z,10.07
2022-11-20T18:32:22.102Z,9.20
2022-11-20T18:34:48.888Z,8.90
2022-11-20T18:37:16.613Z,10.07
2022-11-20T18:39:43.335Z,11.10
2022-11-20T18:42:33.268Z,8.85
2022-11-20T18:45:01.368Z,18.58
2022-11-20T18:47:30.711Z,15.80
2022-11-20T18:49:59.269Z,19.00
2022-11-20T18:52:44.553Z,19.20
2022-11-20T18:55:11.962Z,14.70
2022-11-20T18:57:38.623Z,13.95
2022-11-20T19:00:09.409Z,14.00
2022-11-20T19:02:41.530Z,12.15
2022-11-20T19:05:14.143Z,12.00
2022-11-20T19:07:41.471Z,11.43
2022-11-20T19:10:08.567Z,10.43
2022-11-20T19:12:35.211Z,9.93
2022-11-20T19:15:01.877Z,10.68
2022-11-20T19:17:28.504Z,11.52
2022-11-20T19:19:55.313Z,10.60
2022-11-20T19:22:22.269Z,9.60
2022-11-20T19:24:49.413Z,10.05
2022-11-20T19:27:16.045Z,9.98
2022-11-20T19:29:42.602Z,10.80
2022-11-20T19:32:09.206Z,11.20
2022-11-20T19:34:35.852Z,12.48
2022-11-20T19:37:02.514Z,12.07
2022-11-20T19:39:29.210Z,12.82
2022-11-20T19:41:55.806Z,12.65
2022-11-20T19:44:22.485Z,14.07
2022-11-20T19:46:50.861Z,14.80
2022-11-20T19:49:17.581Z,15.23
2022-11-20T19:51:47.518Z,15.90
2022-11-20T19:54:14.608Z,16.88
2022-11-20T19:56:41.376Z,15.80
2022-11-20T19:59:08.050Z,16.00
2022-11-20T20:01:35.328Z,16.52
2022-11-20T20:04:03.505Z,17.65
2022-11-20T20:06:30.822Z,16.25
2022-11-20T20:09:09.954Z,16.58
2022-11-20T20:11:37.194Z,15.80
2022-11-20T20:14:10.292Z,16.15
2022-11-20T20:16:37.425Z,16.52
2022-11-20T20:19:05.268Z,16.35
2022-11-20T20:21:34.037Z,16.23
2022-11-20T20:24:01.150Z,16.58
2022-11-20T20:26:30.494Z,17.08
2022-11-20T20:28:57.459Z,16.90
2022-11-20T20:31:26.737Z,17.02
2022-11-20T20:33:53.916Z,16.38
2022-11-20T20:36:22.518Z,16.77
2022-11-20T20:38:53.055Z,24.27
2022-11-20T20:41:21.113Z,24.55
2022-11-20T20:44:06.272Z,22.77
2022-11-20T20:46:33.165Z,25.17
2022-11-20T20:48:59.827Z,25.77
2022-11-20T20:51:26.426Z,22.50
2022-11-20T20:53:54.034Z,28.77
2022-11-20T20:56:20.578Z,28.70
2022-11-20T20:58:47.339Z,27.73
2022-11-20T21:01:16.086Z,24.95
2022-11-20T21:03:42.965Z,25.23
2022-11-20T21:06:11.239Z,23.83
2022-11-20T21:08:40.719Z,22.25
2022-11-20T21:11:13.861Z,20.98
2022-11-20T21:13:42.914Z,20.40
2022-11-20T21:16:10.385Z,20.15
2022-11-20T21:18:36.956Z,19.15
2022-11-20T21:21:26.736Z,19.15
2022-11-20T21:23:53.652Z,16.13
2022-11-20T21:26:21.693Z,15.82
2022-11-20T21:28:49.975Z,16.48
2022-11-20T21:31:22.126Z,17.80
2022-11-20T21:33:53.381Z,16.17
2022-11-20T21:36:22.724Z,16.48
2022-11-20T21:38:52.082Z,15.50
2022-11-20T21:41:21.434Z,16.20
2022-11-20T21:44:09.136Z,17.00
2022-11-20T21:46:38.910Z,16.95
2022-11-20T21:49:05.526Z,17.80
2022-11-20T21:51:33.308Z,17.00
2022-11-20T21:53:59.958Z,18.88
2022-11-20T21:56:27.170Z,17.20
2022-11-20T21:58:54.809Z,18.30
2022-11-20T22:01:27.065Z,17.42
2022-11-20T22:03:59.536Z,17.60
2022-11-20T22:06:29.804Z,17.52
2022-11-20T22:08:56.381Z,17.20
2022-11-20T22:11:23.068Z,17.20
2022-11-20T22:14:08.754Z,17.80
2022-11-20T22:16:36.654Z,18.50
2022-11-20T22:19:04.505Z,18.35
2022-11-20T22:21:31.901Z,18.80
2022-11-20T22:23:58.611Z,19.02
2022-11-20T22:26:27.505Z,18.77
2022-11-20T22:28:56.210Z,19.40
2022-11-20T22:31:24.936Z,18.95
2022-11-20T22:33:51.791Z,19.95
2022-11-20T22:36:23.855Z,19.20
2022-11-20T22:38:51.119Z,19.38
2022-11-20T22:41:22.538Z,20.13
2022-11-20T22:43:54.351Z,20.23
2022-11-20T22:46:21.138Z,20.02
2022-11-20T22:48:51.672Z,20.50
2022-11-20T22:51:21.206Z,21.63
2022-11-20T22:53:48.937Z,21.80
2022-11-20T22:56:17.157Z,21.08
2022-11-20T22:58:45.896Z,21.45
2022-11-20T23:01:22.569Z,22.13
2022-11-20T23:03:52.187Z,21.02
2022-11-20T23:06:20.198Z,21.70
2022-11-20T23:08:47.830Z,20.98
2022-11-20T23:11:28.791Z,21.45
2022-11-20T23:13:58.231Z,20.80
2022-11-20T23:16:27.082Z,20.95
2022-11-20T23:18:58.337Z,20.58
2022-11-20T23:21:25.890Z,19.38
2022-11-20T23:23:55.076Z,20.20
2022-11-20T23:26:24.183Z,20.75
2022-11-20T23:28:53.229Z,20.52
2022-11-20T23:31:19.878Z,20.05
2022-11-20T23:33:46.581Z,19.08
2022-11-20T23:36:13.678Z,19.40
2022-11-20T23:38:40.713Z,19.23
2022-11-20T23:41:07.841Z,18.20
2022-11-20T23:43:34.931Z,18.30
2022-11-20T23:46:02.842Z,18.02
2022-11-20T23:48:32.596Z,18.15
2022-11-20T23:50:59.480Z,17.25
2022-11-20T23:53:27.010Z,17.67
2022-11-20T23:55:59.419Z,17.48
2022-11-20T23:58:31.680Z,17.38
